Dades meteomassalio
Diari Summary for Agost 30, 2017 Units:  Metric    English   Both
« Previous Day
Next Day »
Diari Semanal Mensual Anual Personalitzat
  Maxima: Minima: Mijana:
Temperatura: -17.8 °C -8.5 °C -6.2 °C
Rosada: -17.8 °C -11.1 °C -9.4 °C
Humitat: Humidity % 44 % 71 %
Velocitat del vent: 0 km/h 0 km/h 10.1 km/h
Racha vent: 0 km/h - -
Vent:- - SSE
Pressio: 0 hPa 34327.3 hPa -
Pluja: 774.7 mm    
Historical Graphs
 
 
Tabular Data for Agost 30, 2017
Time Temperature Dew Point Pressure Wind Wind Speed Wind Gust Humidity Rainfall Rate (Hourly) solar Conditions
-17.8 °C -17.8 °C 0 hPa Calm     Humidity % 0 mm SolarRadiationWatts/m^2 W/m2 Conditions
00:01 -7.6 °C -11.1 °C 34418.7 hPa Calm     67 % 0 mm 0.0 W/m2 RA
00:06 -7.6 °C -11.1 °C 34428.8 hPa Calm     67 % 0 mm 0.0 W/m2 CLR
00:11 -7.6 °C -10.7 °C 34442.4 hPa Calm     70 % 0 mm 0.0 W/m2 CLR
00:16 -7.6 °C -10.4 °C 34442.4 hPa NW 9 km/h   72 % 0 mm 0.0 W/m2 CLR
00:21 -7.9 °C -10.7 °C 34442.4 hPa Calm     72 % 0 mm 0.0 W/m2 CLR
00:26 -7.9 °C -10.6 °C 34442.4 hPa Calm     73 % 0 mm 0.0 W/m2 CLR
00:31 -7.9 °C -10.6 °C 34442.4 hPa Calm     73 % 0 mm 0.0 W/m2 CLR
00:36 -7.9 °C -10.6 °C 34442.4 hPa Calm     73 % 0 mm 0.0 W/m2 CLR
00:41 -7.9 °C -10.5 °C 34428.8 hPa Calm     74 % 0 mm 0.0 W/m2 CLR
00:47 -7.9 °C -10.4 °C 34428.8 hPa Calm     75 % 0 mm 0.0 W/m2 CLR
00:52 -7.9 °C -10.4 °C 34428.8 hPa Calm     75 % 0 mm 0.0 W/m2 CLR
00:57 -7.9 °C -10.2 °C 34428.8 hPa Calm     77 % 0 mm 0.0 W/m2 CLR
01:02 -7.9 °C -10.2 °C 34428.8 hPa Calm     77 % 0 mm 0.0 W/m2 CLR
01:07 -7.9 °C -10.3 °C 34428.8 hPa Calm     76 % 0 mm 0.0 W/m2 CLR
01:12 -7.9 °C -10.3 °C 34428.8 hPa Calm     76 % 0 mm 0.0 W/m2 CLR
01:17 -7.9 °C -10.3 °C 34442.4 hPa SSW 12.9 km/h 12.9 km/h 76 % 0 mm 0.0 W/m2 CLR
01:22 -7.6 °C -10.1 °C 34462.7 hPa South 3.1 km/h 3.1 km/h 75 % 0 mm 0.0 W/m2 CLR
01:27 -7.6 °C -10.1 °C 34462.7 hPa Calm     75 % 0 mm 0.0 W/m2 CLR
01:32 -7.3 °C -9.7 °C 34462.7 hPa SSE 23.8 km/h 23.8 km/h 76 % 0 mm 0.0 W/m2 CLR
01:37 -7.3 °C -9.7 °C 34462.7 hPa Calm     76 % 0 mm 0.0 W/m2 CLR
01:42 -7.3 °C -9.8 °C 34462.7 hPa Calm     75 % 0 mm 0.0 W/m2 CLR
01:47 -7.3 °C -9.7 °C 34452.6 hPa Calm     76 % 0 mm 0.0 W/m2 CLR
01:52 -7.6 °C -10.1 °C 34462.7 hPa Calm     75 % 0 mm 0.0 W/m2 CLR
01:57 -7.6 °C -10.1 °C 34462.7 hPa Calm     75 % 0 mm 0.0 W/m2 CLR
02:02 -7.6 °C -10.1 °C 34476.3 hPa Calm     75 % 0 mm 0.0 W/m2 CLR
02:03 -7.6 °C -10 °C 34476.3 hPa Calm     76 % 0 mm 0.0 W/m2 CLR
02:08 -7.6 °C -10 °C 34462.7 hPa Calm     76 % 0 mm 0.0 W/m2 CLR
02:13 -7.6 °C -10 °C 34462.7 hPa ENE 6 km/h 6 km/h 76 % 0 mm 0.0 W/m2 CLR
02:18 -7.9 °C -10.2 °C 34462.7 hPa NE 5.1 km/h 5.1 km/h 77 % 0 mm 0.0 W/m2 CLR
02:23 -7.9 °C -10.1 °C 34462.7 hPa SSW 9 km/h 9 km/h 78 % 0 mm 0.0 W/m2 CLR
02:28 -7.9 °C -10.2 °C 34462.7 hPa Calm     77 % 0 mm 0.0 W/m2 CLR
02:33 -7.9 °C -10.2 °C 34462.7 hPa Calm     77 % 0 mm 0.0 W/m2 CLR
02:38 -7.9 °C -10.1 °C 34462.7 hPa Calm     78 % 0 mm 0.0 W/m2 CLR
02:43 -7.9 °C -10.1 °C 34462.7 hPa Calm     78 % 0 mm 0.0 W/m2 CLR
02:48 -7.9 °C -10.1 °C 34462.7 hPa Calm     78 % 0 mm 0.0 W/m2 CLR
02:58 -7.9 °C -9.8 °C 34476.3 hPa Calm     80 % 0 mm 0.0 W/m2 CLR
03:03 -7.9 °C -9.7 °C 34486.4 hPa Calm     81 % 0 mm 0.0 W/m2 CLR
03:08 -7.9 °C -9.9 °C 34496.6 hPa ESE 31.1 km/h 31.1 km/h 79 % 0 mm 0.0 W/m2 CLR
03:13 -7.3 °C -10.1 °C 34496.6 hPa SE 32.8 km/h 32.8 km/h 73 % 0 mm 0.0 W/m2 CLR
03:18 -7 °C -9.9 °C 34496.6 hPa ESE 35.7 km/h 35.7 km/h 71 % 0 mm 0.0 W/m2 CLR
03:23 -7.3 °C -10.1 °C 34486.4 hPa SE 9 km/h 9 km/h 73 % 0 mm 0.0 W/m2 CLR
03:28 -7.3 °C -9.8 °C 34486.4 hPa ESE 23.3 km/h 23.3 km/h 75 % 7.62 mm 0.0 W/m2 RA
03:33 -7.3 °C -9.8 °C 34486.4 hPa ESE 23.8 km/h 23.8 km/h 75 % 7.62 mm 0.0 W/m2 CLR
03:38 -7.6 °C -10 °C 34476.3 hPa ESE 33.6 km/h 33.6 km/h 76 % 7.62 mm 0.0 W/m2 CLR
03:43 -7.6 °C -10.1 °C 34476.3 hPa East 50.7 km/h 50.7 km/h 75 % 12.7 mm 0.0 W/m2 RA
03:48 -7.6 °C -10 °C 34462.7 hPa East 38.8 km/h 38.8 km/h 76 % 12.7 mm 0.0 W/m2
03:53 -7.9 °C -10.2 °C 34462.7 hPa East 32.8 km/h 32.8 km/h 77 % 12.7 mm 0.0 W/m2 CLR
03:58 -7.9 °C -10.1 °C 34452.6 hPa ENE 18.2 km/h 18.2 km/h 78 % 12.7 mm 0.0 W/m2 CLR
04:03 -8.2 °C -10.2 °C 34442.4 hPa ENE 20.9 km/h 20.9 km/h 79 % 12.7 mm 0.0 W/m2 CLR
04:08 -8.2 °C -10.2 °C 34428.8 hPa NNW 15 km/h   79 % 12.7 mm 0.0 W/m2 CLR
04:13 -8.2 °C -10.1 °C 34428.8 hPa ESE 26.9 km/h 26.9 km/h 81 % 12.7 mm 0.0 W/m2 CLR
04:18 -8.2 °C -10.2 °C 34418.7 hPa ENE 29.8 km/h 29.8 km/h 80 % 12.7 mm 0.0 W/m2 CLR
04:23 -8.2 °C -10.2 °C 34405.1 hPa ENE 46.7 km/h 46.7 km/h 79 % 12.7 mm 0.0 W/m2 CLR
04:28 -8.2 °C -10.4 °C 34395 hPa ENE 38.8 km/h 38.8 km/h 77 % 7.62 mm 0.0 W/m2 CLR
04:33 -7.9 °C -10.3 °C 34384.8 hPa East 35.7 km/h 35.7 km/h 76 % 7.62 mm 0.0 W/m2 CLR
04:34 -7.9 °C -10.3 °C 34384.8 hPa East 32.8 km/h 32.8 km/h 76 % 7.62 mm 0.0 W/m2 CLR
04:39 -7.9 °C -10.4 °C 34395 hPa East 38.8 km/h 38.8 km/h 75 % 7.62 mm 0.0 W/m2 CLR
04:44 -7.6 °C -10.3 °C 34384.8 hPa East 32.8 km/h 32.8 km/h 73 % 0 mm 0.0 W/m2 CLR
04:49 -7.3 °C -10.3 °C 34384.8 hPa SSE 26.9 km/h 26.9 km/h 71 % 0 mm 0.0 W/m2 CLR
04:54 -7.3 °C -10.2 °C 34395 hPa SSE 15 km/h 15 km/h 72 % 0 mm 0.0 W/m2 CLR
04:59 -7.6 °C -10.2 °C 34418.7 hPa SSW 29.8 km/h 29.8 km/h 74 % 0 mm 0.0 W/m2 CLR
05:04 -7.6 °C -10.6 °C 34418.7 hPa South 41.7 km/h 41.7 km/h 71 % 0 mm 0.0 W/m2 CLR
05:10 -7.3 °C -10.3 °C 34428.8 hPa SE 17.9 km/h   71 % 0 mm 0.0 W/m2 CLR
05:15 -7.3 °C -10.3 °C 34442.4 hPa South 33.6 km/h 33.6 km/h 71 % 0 mm 0.0 W/m2 CLR
05:20 -7.3 °C -10.3 °C 34442.4 hPa South 29.8 km/h 29.8 km/h 71 % 0 mm 0.0 W/m2 CLR
05:25 -7.3 °C -10.2 °C 34428.8 hPa SSW 20.9 km/h 20.9 km/h 72 % 0 mm 0.0 W/m2 CLR
05:30 -7.6 °C -10.4 °C 34428.8 hPa South 11.9 km/h 11.9 km/h 72 % 0 mm 0.0 W/m2 CLR
05:35 -7.6 °C -10.4 °C 34418.7 hPa Calm     72 % 0 mm 0.0 W/m2 CLR
05:40 -7.9 °C -10.6 °C 34428.8 hPa Calm     73 % 0 mm 0.0 W/m2 CLR
05:45 -8.2 °C -10.9 °C 34418.7 hPa Calm     73 % 0 mm 0.0 W/m2 CLR
05:50 -8.2 °C -10.8 °C 34418.7 hPa Calm     74 % 0 mm 0.0 W/m2 CLR
05:55 -8.2 °C -10.7 °C 34428.8 hPa Calm     75 % 0 mm 0.0 W/m2 CLR
06:00 -8.5 °C -10.9 °C 34418.7 hPa Calm     76 % 0 mm 0.0 W/m2 CLR
06:05 -8.5 °C -10.9 °C 34418.7 hPa Calm     76 % 0 mm 0.0 W/m2 CLR
06:10 -8.5 °C -10.9 °C 34418.7 hPa Calm     76 % 0 mm 0.0 W/m2 CLR
06:15 -8.5 °C -10.8 °C 34428.8 hPa Calm     77 % 0 mm 0.0 W/m2 CLR
06:20 -8.5 °C -10.6 °C 34428.8 hPa Calm     79 % 0 mm 0.0 W/m2 CLR
06:25 -8.5 °C -10.6 °C 34442.4 hPa Calm     79 % 0 mm 0.0 W/m2 CLR
06:30 -8.5 °C -10.8 °C 34442.4 hPa ESE 6 km/h   77 % 0 mm 0.0 W/m2 CLR
06:35 -8.2 °C -10.8 °C 34428.8 hPa Calm     74 % 0 mm 0.0 W/m2 CLR
06:40 -8.2 °C -10.7 °C 34428.8 hPa ENE 9 km/h 9 km/h 75 % 0 mm 0.0 W/m2 CLR
06:45 -8.2 °C -10.6 °C 34428.8 hPa Calm     76 % 0 mm 0.0 W/m2 CLR
06:50 -8.2 °C -10.6 °C 34428.8 hPa Calm     76 % 0 mm 0.0 W/m2 CLR
06:55 -8.2 °C -10.6 °C 34428.8 hPa Calm     76 % 0 mm 0.0 W/m2 CLR
07:00 -8.2 °C -10.4 °C 34428.8 hPa Calm     77 % 0 mm 0.0 W/m2 CLR
07:05 -8.2 °C -10.4 °C 34428.8 hPa Calm     77 % 0 mm 0.0 W/m2 CLR
07:10 -8.2 °C -10.4 °C 34428.8 hPa North 7.7 km/h   77 % 0 mm 0.0 W/m2 CLR
07:15 -8.2 °C -10.4 °C 34428.8 hPa Calm     78 % 0 mm 0.0 W/m2 OVC
07:20 -8.2 °C -10.4 °C 34428.8 hPa Calm     78 % 0 mm 0.0 W/m2 OVC
07:25 -8.2 °C -10.2 °C 34442.4 hPa Calm     79 % 0 mm 0.0 W/m2 OVC
07:30 -8.5 °C -10.4 °C 34452.6 hPa Calm     80 % 0 mm 0.0 W/m2 OVC
07:35 -8.5 °C -10.6 °C 34452.6 hPa Calm     79 % 0 mm 7.0 W/m2 BKN
07:40 -8.5 °C -10.6 °C 34452.6 hPa Calm     79 % 0 mm 11.0 W/m2 BKN
07:45 -8.5 °C -10.6 °C 34452.6 hPa Calm     79 % 0 mm 12.0 W/m2 BKN
07:50 -8.5 °C -10.6 °C 34452.6 hPa Calm     79 % 0 mm 14.0 W/m2 BKN
07:55 -8.5 °C -10.6 °C 34452.6 hPa Calm     79 % 0 mm 18.0 W/m2 BKN
08:00 -8.5 °C -10.4 °C 34462.7 hPa Calm     80 % 0 mm 19.0 W/m2 BKN
08:05 -8.5 °C -10.3 °C 34462.7 hPa Calm     81 % 0 mm 30.0 W/m2 BKN
08:10 -8.5 °C -10.3 °C 34452.6 hPa Calm     81 % 0 mm 44.0 W/m2 BKN
08:15 -8.5 °C -10.2 °C 34452.6 hPa Calm     82 % 0 mm 37.0 W/m2 BKN
08:20 -8.2 °C -10.2 °C 34452.6 hPa Calm     80 % 0 mm 26.0 W/m2 BKN
08:25 -8.2 °C -10.1 °C 34442.4 hPa Calm     81 % 0 mm 33.0 W/m2 BKN
08:30 -8.2 °C -10.2 °C 34442.4 hPa Calm     80 % 0 mm 35.0 W/m2 BKN
08:35 -8.2 °C -10.2 °C 34442.4 hPa Calm     80 % 0 mm 35.0 W/m2 BKN
08:40 -8.2 °C -10.1 °C 34452.6 hPa Calm     81 % 0 mm 54.0 W/m2 BKN
08:45 -7.9 °C -9.8 °C 34442.4 hPa Calm     80 % 0 mm 176.0 W/m2 SCT
08:50 -7.6 °C -9.4 °C 34428.8 hPa Calm     81 % 0 mm 232.0 W/m2 CLR
08:55 -7.6 °C -9.6 °C 34442.4 hPa Calm     80 % 0 mm 98.0 W/m2 CLR
09:00 -7.3 °C -9.3 °C 34442.4 hPa Calm     79 % 0 mm 107.0 W/m2 CLR
09:05 -7.3 °C -9.3 °C 34442.4 hPa Calm     79 % 0 mm 76.0 W/m2 CLR
09:10 -7.3 °C -9.3 °C 34428.8 hPa Calm     79 % 0 mm 111.0 W/m2 CLR
09:11 -7.3 °C -9.3 °C 34442.4 hPa Calm     79 % 0 mm 111.0 W/m2 CLR
09:16 -7 °C -9.2 °C 34442.4 hPa Calm     78 % 0 mm 258.0 W/m2 CLR
09:21 -7 °C -9.4 °C 34428.8 hPa Calm     76 % 0 mm 274.0 W/m2 CLR
09:26 -7 °C -9.4 °C 34428.8 hPa Calm     76 % 0 mm 306.0 W/m2 CLR
09:32 -7 °C -9.5 °C 34418.7 hPa Calm     75 % 0 mm 62.0 W/m2 CLR
09:37 -7 °C -9.5 °C 34428.8 hPa Calm     75 % 0 mm 325.0 W/m2 FEW
09:42 -7 °C -9.6 °C 34428.8 hPa Calm     74 % 0 mm 353.0 W/m2 FEW
09:47 -6.7 °C -9.6 °C 34442.4 hPa ESE 15.6 km/h 15.6 km/h 72 % 0 mm 339.0 W/m2 CLR
09:49 -6.3 °C -9.4 °C 34442.4 hPa SE 23.3 km/h 23.3 km/h 71 % 0 mm 357.0 W/m2 CLR
09:54 -6.1 °C -9.3 °C 34442.4 hPa ESE 10.3 km/h 10.3 km/h 69 % 0 mm 388.0 W/m2 CLR
09:59 -5.7 °C -9.2 °C 34428.8 hPa East 20.9 km/h 20.9 km/h 68 % 0 mm 415.0 W/m2 CLR
10:04 -5.7 °C -9.3 °C 34428.8 hPa ENE 23.8 km/h 23.8 km/h 67 % 0 mm 420.0 W/m2 CLR
10:09 -5.4 °C -9 °C 34428.8 hPa ENE 20.9 km/h 20.9 km/h 67 % 0 mm 431.0 W/m2 CLR
10:14 -5.4 °C -8.8 °C 34428.8 hPa ESE 15 km/h 15 km/h 68 % 0 mm 434.0 W/m2 CLR
10:19 -5.4 °C -9.1 °C 34428.8 hPa ESE 17.9 km/h 17.9 km/h 66 % 0 mm 461.0 W/m2 CLR
10:24 -5.1 °C -9 °C 34428.8 hPa East 18.2 km/h 18.2 km/h 65 % 0 mm 485.0 W/m2 CLR
10:25 -5.1 °C -9 °C 34428.8 hPa East 18.2 km/h 18.2 km/h 65 % 0 mm 485.0 W/m2 CLR
10:30 -5.1 °C -9.1 °C 34428.8 hPa SE 26.9 km/h 26.9 km/h 64 % 0 mm 501.0 W/m2 CLR
10:35 -4.8 °C -8.8 °C 34428.8 hPa Calm     64 % 0 mm 513.0 W/m2 CLR
10:40 -4.8 °C -9.1 °C 34428.8 hPa ESE 15 km/h   62 % 0 mm 526.0 W/m2 CLR
10:45 -4.8 °C -9.2 °C 34428.8 hPa Calm     61 % 0 mm 554.0 W/m2 CLR
10:50 -4.5 °C -8.8 °C 34418.7 hPa Calm   0.8 km/h 62 % 0 mm 515.0 W/m2 CLR
10:55 -4.5 °C -9.1 °C 34418.7 hPa Calm     60 % 0 mm 492.0 W/m2 CLR
11:00 -4.5 °C -9.1 °C 34418.7 hPa Calm     60 % 0 mm 594.0 W/m2 CLR
11:05 -4.2 °C -8.9 °C 34418.7 hPa SW 17.9 km/h 17.9 km/h 59 % 0 mm 626.0 W/m2 CLR
11:10 -4.2 °C -9.7 °C 34418.7 hPa SW 9 km/h   54 % 0 mm 626.0 W/m2 CLR
11:15 -3.9 °C -9.6 °C 34418.7 hPa SE 3.1 km/h 3.1 km/h 53 % 0 mm 399.0 W/m2 CLR
11:20 -3.9 °C -9.6 °C 34405.1 hPa Calm     53 % 0 mm 461.0 W/m2 CLR
11:25 -3.9 °C -9.6 °C 34405.1 hPa SSE 6 km/h 6 km/h 53 % 0 mm 545.0 W/m2 CLR
11:30 -3.9 °C -9.8 °C 34405.1 hPa Calm   2.1 km/h 52 % 0 mm 622.0 W/m2 CLR
11:35 -3.6 °C -9.3 °C 34418.7 hPa SSW 9 km/h 9 km/h 53 % 0 mm 724.0 W/m2 CLR
11:40 -3.3 °C -9.2 °C 34418.7 hPa South 18.2 km/h 18.2 km/h 52 % 0 mm 710.0 W/m2 CLR
11:45 -3.3 °C -9.2 °C 34418.7 hPa SSW 32.8 km/h 32.8 km/h 52 % 0 mm 429.0 W/m2 CLR
11:50 -3.3 °C -9 °C 34418.7 hPa WSW 11.9 km/h 11.9 km/h 53 % 0 mm 717.0 W/m2 CLR
11:55 -3.3 °C -9.2 °C 34418.7 hPa SSW 23.3 km/h 23.3 km/h 52 % 0 mm 807.0 W/m2 CLR
12:00 -3.3 °C -9.3 °C 34418.7 hPa South 20.9 km/h 20.9 km/h 51 % 0 mm 828.0 W/m2 CLR
12:05 -3.3 °C -9.2 °C 34418.7 hPa WSW 29.8 km/h 29.8 km/h 52 % 0 mm 357.0 W/m2 CLR
12:10 -3.6 °C -9.5 °C 34418.7 hPa SSW 23.8 km/h 23.8 km/h 52 % 0 mm 338.0 W/m2 CLR
12:15 -3.6 °C -9.5 °C 34418.7 hPa SSW 26.9 km/h 26.9 km/h 52 % 0 mm 369.0 W/m2 CLR
12:20 -3.6 °C -9.6 °C 34418.7 hPa South 20.9 km/h 20.9 km/h 51 % 0 mm 707.0 W/m2 CLR
12:25 -3.3 °C -9.3 °C 34418.7 hPa Calm     51 % 0 mm 626.0 W/m2 CLR
12:30 -3.3 °C -9 °C 34418.7 hPa WSW 20.9 km/h 20.9 km/h 53 % 0 mm 475.0 W/m2 CLR
12:35 -3.3 °C -9.2 °C 34405.1 hPa SSW 15 km/h 15 km/h 52 % 0 mm 548.0 W/m2 CLR
12:40 -2.9 °C -9.1 °C 34405.1 hPa SW 17.9 km/h 17.9 km/h 51 % 0 mm 786.0 W/m2 CLR
12:45 -2.9 °C -8.9 °C 34405.1 hPa WSW 38.8 km/h 38.8 km/h 52 % 0 mm 879.0 W/m2 CLR
12:50 -2.9 °C -9.1 °C 34405.1 hPa West 23.8 km/h 23.8 km/h 51 % 0 mm 856.0 W/m2 CLR
12:55 -2.9 °C -8.9 °C 34405.1 hPa WSW 32.8 km/h 32.8 km/h 52 % 0 mm 828.0 W/m2 CLR
13:00 -2.9 °C -9.1 °C 34405.1 hPa WNW 15 km/h 15 km/h 51 % 0 mm 819.0 W/m2 CLR
13:05 -2.9 °C -8.9 °C 34395 hPa WSW 26.9 km/h 26.9 km/h 52 % 0 mm 772.0 W/m2 CLR
13:10 -3.3 °C -9.3 °C 34395 hPa SW 6 km/h   51 % 0 mm 796.0 W/m2 CLR
13:15 -2.9 °C -9.2 °C 34395 hPa NW 20.8 km/h 20.8 km/h 50 % 0 mm 788.0 W/m2 CLR
13:20 -2.9 °C -9.2 °C 34395 hPa WSW 12.9 km/h 12.9 km/h 50 % 0 mm 782.0 W/m2 CLR
13:25 -2.9 °C -9.1 °C 34395 hPa SW 11.9 km/h 11.9 km/h 51 % 0 mm 807.0 W/m2 CLR
13:30 -2.9 °C -9.6 °C 34395 hPa West 17.9 km/h   48 % 0 mm 823.0 W/m2 CLR
13:35 -2.7 °C -9.3 °C 34395 hPa Calm     48 % 0 mm 824.0 W/m2 CLR
13:41 -2.7 °C -9.3 °C 34395 hPa Calm     48 % 0 mm 863.0 W/m2 CLR
13:46 -2.3 °C -9.2 °C 34384.8 hPa Calm     47 % 0 mm 954.0 W/m2 CLR
13:51 -2.3 °C -9.2 °C 34384.8 hPa Calm     47 % 0 mm 926.0 W/m2 CLR
13:56 -2.7 °C -9.3 °C 34384.8 hPa Calm     48 % 0 mm 974.0 W/m2 CLR
14:01 -2.7 °C -9.7 °C 34384.8 hPa Calm     46 % 0 mm 875.0 W/m2 CLR
14:06 -2.7 °C -9.5 °C 34371.3 hPa NNE 11.9 km/h 11.9 km/h 47 % 0 mm 766.0 W/m2 CLR
14:11 -2.7 °C -9.5 °C 34371.3 hPa North 6 km/h   47 % 0 mm 671.0 W/m2 CLR
14:16 -2.7 °C -9.3 °C 34371.3 hPa Calm     48 % 0 mm 858.0 W/m2 CLR
14:21 -2.3 °C -9.4 °C 34371.3 hPa Calm     46 % 0 mm 805.0 W/m2 CLR
14:26 -2.3 °C -9.2 °C 34371.3 hPa Calm     47 % 0 mm 858.0 W/m2 CLR
14:31 -2.3 °C -9.2 °C 34371.3 hPa North 15 km/h 15 km/h 47 % 0 mm 643.0 W/m2 CLR
14:36 -2.7 °C -9.5 °C 34371.3 hPa West 26.9 km/h 26.9 km/h 47 % 0 mm 888.0 W/m2 CLR
14:41 -2.3 °C -9.4 °C 34361.1 hPa NNW 23.8 km/h 23.8 km/h 46 % 0 mm 861.0 W/m2 CLR
14:46 -2.3 °C -9.6 °C 34371.3 hPa NW 29.8 km/h 29.8 km/h 45 % 0 mm 837.0 W/m2 CLR
14:51 -2.3 °C -9.6 °C 34371.3 hPa West 9 km/h 9 km/h 45 % 0 mm 856.0 W/m2 CLR
14:56 -2.3 °C -9.2 °C 34371.3 hPa NNW 15 km/h 15 km/h 47 % 0 mm 817.0 W/m2 CLR
15:01 -2.3 °C -9.6 °C 34371.3 hPa North 23.8 km/h 23.8 km/h 45 % 0 mm 724.0 W/m2 CLR
15:06 -2.3 °C -9.4 °C 34371.3 hPa NE 15 km/h 15 km/h 46 % 0 mm 847.0 W/m2 CLR
15:11 -2.3 °C -9.4 °C 34361.1 hPa NNE 15 km/h 15 km/h 46 % 0 mm 584.0 W/m2 CLR
15:16 -2.3 °C -9.6 °C 34361.1 hPa NNE 11.9 km/h 11.9 km/h 45 % 0 mm 763.0 W/m2 CLR
15:21 -2.1 °C -9.5 °C 34361.1 hPa NNE 9 km/h 9 km/h 44 % 0 mm 821.0 W/m2 CLR
15:26 -2.1 °C -9.1 °C 34361.1 hPa Calm     46 % 0 mm 731.0 W/m2 CLR
15:31 -2.1 °C -9.1 °C 34361.1 hPa NW 20.9 km/h 20.9 km/h 46 % 0 mm 765.0 W/m2 CLR
15:32 -2.1 °C -9.3 °C 34361.1 hPa West 11.9 km/h   45 % 0 mm 765.0 W/m2 CLR
15:37 -2.3 °C -9.4 °C 34361.1 hPa WNW 20.9 km/h 20.9 km/h 46 % 0 mm 417.0 W/m2 CLR
15:42 -2.3 °C -9.6 °C 34347.6 hPa NW 20.8 km/h 20.8 km/h 45 % 0 mm 824.0 W/m2 CLR
15:47 -2.1 °C -9.1 °C 34347.6 hPa WNW 11.9 km/h 11.9 km/h 46 % 0 mm 810.0 W/m2 CLR
15:52 -2.1 °C -9.3 °C 34347.6 hPa NW 15.6 km/h 15.6 km/h 45 % 0 mm 800.0 W/m2 CLR
15:57 -2.1 °C -9.5 °C 34347.6 hPa North 11.9 km/h 11.9 km/h 44 % 0 mm 710.0 W/m2 CLR
16:02 -2.1 °C -9.5 °C 34337.4 hPa WNW 23.8 km/h 23.8 km/h 44 % 0 mm 686.0 W/m2 CLR
16:07 -2.1 °C -9.3 °C 34337.4 hPa Calm     45 % 0 mm 701.0 W/m2 CLR
16:13 -2.1 °C -9.5 °C 34337.4 hPa NW 23.8 km/h 23.8 km/h 44 % 0 mm 589.0 W/m2 CLR
16:18 -2.3 °C -9.8 °C 34337.4 hPa NNW 17.9 km/h 17.9 km/h 44 % 0 mm 396.0 W/m2 CLR
16:23 -2.7 °C -9.8 °C 34337.4 hPa NW 23.8 km/h 23.8 km/h 45 % 0 mm 257.0 W/m2 CLR
16:28 -2.7 °C -9.7 °C 34337.4 hPa North 15 km/h 15 km/h 46 % 0 mm 260.0 W/m2 CLR
16:33 -2.7 °C -8.9 °C 34337.4 hPa NNE 3.1 km/h 3.1 km/h 50 % 0 mm 237.0 W/m2 CLR
16:38 -2.7 °C -8.6 °C 34337.4 hPa NE 26.9 km/h 26.9 km/h 52 % 0 mm 272.0 W/m2 CLR
16:43 -2.7 °C -8.3 °C 34337.4 hPa NE 17.9 km/h 17.9 km/h 54 % 0 mm 183.0 W/m2 CLR
16:48 -2.9 °C -8.2 °C 34337.4 hPa ENE 29.8 km/h 29.8 km/h 56 % 0 mm 169.0 W/m2 CLR
16:53 -3.3 °C -8.4 °C 34337.4 hPa NE 32.8 km/h 32.8 km/h 57 % 0 mm 343.0 W/m2 CLR
16:58 -2.9 °C -8.1 °C 34327.3 hPa NE 15 km/h 15 km/h 57 % 0 mm 420.0 W/m2 CLR
17:03 -2.9 °C -8.1 °C 34327.3 hPa NE 23.8 km/h 23.8 km/h 57 % 0 mm 476.0 W/m2 CLR
17:08 -2.7 °C -7.9 °C 34327.3 hPa NE 29.8 km/h 29.8 km/h 56 % 0 mm 415.0 W/m2 CLR
17:13 -2.7 °C -7.8 °C 34327.3 hPa NE 17.9 km/h 17.9 km/h 57 % 0 mm 540.0 W/m2 CLR
17:18 -2.7 °C -7.8 °C 34327.3 hPa NNE 23.8 km/h 23.8 km/h 57 % 0 mm 480.0 W/m2 CLR
17:23 -2.7 °C -7.9 °C 34327.3 hPa ENE 23.3 km/h 23.3 km/h 56 % 0 mm 225.0 W/m2 CLR
17:28 -2.9 °C -8.1 °C 34327.3 hPa NNE 23.8 km/h 23.8 km/h 57 % 0 mm 244.0 W/m2 CLR
17:33 -2.9 °C -8.1 °C 34327.3 hPa NE 29.8 km/h 29.8 km/h 57 % 0 mm 142.0 W/m2 CLR
17:38 -3.3 °C -8.2 °C 34327.3 hPa NE 12.9 km/h 12.9 km/h 58 % 0 mm 128.0 W/m2 CLR
17:43 -3.3 °C -8.4 °C 34327.3 hPa ENE 9 km/h   57 % 0 mm 86.0 W/m2 CLR
17:48 -3.3 °C -8.4 °C 34327.3 hPa ENE 15.6 km/h 15.6 km/h 57 % 0 mm 60.0 W/m2 CLR
17:53 -3.6 °C -8.7 °C 34327.3 hPa East 17.9 km/h 17.9 km/h 57 % 0 mm 35.0 W/m2 SCT
17:58 -3.6 °C -8.4 °C 34327.3 hPa ENE 20.8 km/h 20.8 km/h 59 % 0 mm 25.0 W/m2 BKN
18:03 -3.6 °C -8.4 °C 34327.3 hPa Calm     59 % 0 mm 18.0 W/m2 BKN
18:08 -3.9 °C -8.8 °C 34327.3 hPa NNE 9 km/h 9 km/h 58 % 0 mm 11.0 W/m2 BKN
18:13 -3.9 °C -8.8 °C 34327.3 hPa Calm     58 % 0 mm 5.0 W/m2 BKN
18:18 -3.9 °C -7.8 °C 34347.6 hPa West 29.8 km/h 29.8 km/h 65 % 0 mm 0.0 W/m2 BKN
18:23 -4.5 °C -7.9 °C 34347.6 hPa SW 31.1 km/h 31.1 km/h 69 % 0 mm 0.0 W/m2 OVC
18:28 -4.8 °C -7.6 °C 34361.1 hPa West 62.6 km/h 62.6 km/h 74 % 7.62 mm 0.0 W/m2 RA
18:33 -5.7 °C -7.7 °C 34395 hPa SW 53.6 km/h 53.6 km/h 80 % 83.82 mm 0.0 W/m2 RA
18:38 -6.7 °C -8.3 °C 34405.1 hPa SW 29.8 km/h 29.8 km/h 83 % 276.86 mm 7.0 W/m2 RA
18:48 -7.6 °C -8.8 °C 34384.8 hPa North 12.9 km/h 12.9 km/h 87 % 535.94 mm 47.0 W/m2 RA
18:53 -7.6 °C -8.7 °C 34384.8 hPa NNW 9 km/h   88 % 561.34 mm 60.0 W/m2 RA
18:59 -7.6 °C -8.6 °C 34384.8 hPa Calm     89 % 568.96 mm 67.0 W/m2 RA
19:04 -7.6 °C -8.5 °C 34371.3 hPa Calm     90 % 568.96 mm 60.0 W/m2 SCT
19:09 -7.6 °C -8.4 °C 34371.3 hPa Calm     91 % 568.96 mm 35.0 W/m2 SCT
19:14 -7.6 °C -8.4 °C 34371.3 hPa Calm     91 % 568.96 mm 25.0 W/m2 BKN
19:19 -7.6 °C -8.4 °C 34384.8 hPa Calm     91 % 568.96 mm 14.0 W/m2 BKN
19:24 -7.3 °C -8.1 °C 34384.8 hPa Calm     91 % 568.96 mm 7.0 W/m2 BKN
19:29 -7.3 °C -8.1 °C 34384.8 hPa Calm     91 % 561.34 mm 5.0 W/m2 BKN
19:34 -7.3 °C -8.1 °C 34395 hPa SW 29.8 km/h 29.8 km/h 91 % 490.22 mm 0.0 W/m2 BKN
19:39 -7.3 °C -8.1 °C 34395 hPa WSW 26.9 km/h 26.9 km/h 91 % 271.78 mm 0.0 W/m2 RA
19:44 -7.3 °C -8.1 °C 34395 hPa WSW 29.8 km/h 29.8 km/h 91 % 154.94 mm 5.0 W/m2 RA
19:49 -7.3 °C -8.1 °C 34395 hPa SW 29.8 km/h 29.8 km/h 91 % 175.26 mm 9.0 W/m2 RA
19:54 -7.3 °C -8.1 °C 34384.8 hPa Calm     91 % 193.04 mm 18.0 W/m2 RA
19:59 -7.3 °C -8.1 °C 34371.3 hPa Calm     91 % 193.04 mm 25.0 W/m2 RA
20:04 -7.6 °C -8.4 °C 34384.8 hPa Calm     91 % 193.04 mm 23.0 W/m2 BKN
20:09 -7.6 °C -8.4 °C 34384.8 hPa Calm     91 % 193.04 mm 21.0 W/m2 BKN
20:14 -7.3 °C -8 °C 34384.8 hPa Calm     92 % 193.04 mm 21.0 W/m2 BKN
20:19 -7.3 °C -8 °C 34384.8 hPa Calm     92 % 193.04 mm 16.0 W/m2 BKN
20:24 -7.3 °C -8 °C 34384.8 hPa Calm     92 % 193.04 mm 14.0 W/m2 BKN
20:29 -7.6 °C -8.3 °C 34384.8 hPa Calm     92 % 193.04 mm 9.0 W/m2 BKN
20:34 -7.6 °C -8.3 °C 34384.8 hPa Calm     92 % 193.04 mm 0.0 W/m2 OVC
20:39 -7.6 °C -8.3 °C 34384.8 hPa Calm     92 % 160.02 mm 0.0 W/m2 OVC
20:44 -7.6 °C -8.3 °C 34395 hPa ESE 2.6 km/h   92 % 134.62 mm 0.0 W/m2 OVC
20:49 -7.6 °C -8.3 °C 34384.8 hPa Calm     92 % 38.1 mm 0.0 W/m2 CLR
20:54 -7.6 °C -8.3 °C 34384.8 hPa Calm     92 % 7.62 mm 0.0 W/m2 CLR
20:59 -7.6 °C -8.3 °C 34395 hPa Calm     92 % 0 mm 0.0 W/m2 CLR
21:04 -7.6 °C -8.3 °C 34395 hPa Calm     92 % 0 mm 0.0 W/m2 CLR
21:09 -7.6 °C -8.3 °C 34395 hPa Calm     92 % 0 mm 0.0 W/m2 CLR
21:14 -7.9 °C -8.7 °C 34395 hPa Calm     92 % 0 mm 0.0 W/m2 CLR
21:19 -7.9 °C -8.7 °C 34395 hPa Calm     92 % 0 mm 0.0 W/m2 CLR
21:24 -7.6 °C -8.3 °C 34395 hPa Calm     92 % 0 mm 0.0 W/m2 CLR
21:29 -7.9 °C -8.7 °C 34395 hPa Calm     92 % 0 mm 0.0 W/m2 CLR
21:34 -7.9 °C -8.7 °C 34395 hPa Calm     92 % 0 mm 0.0 W/m2 CLR
21:39 -7.9 °C -8.7 °C 34395 hPa ESE 23.3 km/h 23.3 km/h 92 % 0 mm 0.0 W/m2 CLR
21:44 -7.9 °C -8.7 °C 34395 hPa SE 9 km/h   92 % 0 mm 0.0 W/m2 CLR
21:49 -7.9 °C -8.7 °C 34395 hPa SSE 17.9 km/h 17.9 km/h 91 % 0 mm 0.0 W/m2 CLR
21:54 -7.9 °C -8.7 °C 34395 hPa Calm     91 % 0 mm 0.0 W/m2 CLR
21:59 -7.9 °C -8.7 °C 34395 hPa Calm     91 % 0 mm 0.0 W/m2 CLR
22:04 -7.9 °C -8.7 °C 34395 hPa Calm     91 % 0 mm 0.0 W/m2 CLR
22:09 -7.9 °C -8.8 °C 34395 hPa Calm     90 % 0 mm 0.0 W/m2 CLR
22:15 -7.9 °C -8.7 °C 34395 hPa Calm     91 % 0 mm 0.0 W/m2 CLR
22:20 -7.9 °C -8.8 °C 34395 hPa Calm     90 % 0 mm 0.0 W/m2 CLR
22:25 -7.9 °C -8.8 °C 34395 hPa Calm     90 % 0 mm 0.0 W/m2 CLR
22:30 -7.9 °C -8.9 °C 34395 hPa Calm     89 % 0 mm 0.0 W/m2 CLR
22:35 -8.2 °C -9.2 °C 34395 hPa Calm     89 % 0 mm 0.0 W/m2 CLR
22:40 -8.2 °C -9.3 °C 34395 hPa Calm     88 % 0 mm 0.0 W/m2 CLR
22:45 -8.2 °C -9.3 °C 34395 hPa Calm     88 % 0 mm 0.0 W/m2 CLR
22:50 -8.2 °C -9.3 °C 34395 hPa Calm     88 % 0 mm 0.0 W/m2 CLR
22:55 -8.2 °C -9.3 °C 34395 hPa Calm     88 % 0 mm 0.0 W/m2 CLR
23:00 -8.2 °C -9.3 °C 34395 hPa Calm     88 % 0 mm 0.0 W/m2 CLR
23:05 -8.2 °C -9.2 °C 34395 hPa Calm     89 % 0 mm 0.0 W/m2 CLR
23:10 -8.2 °C -9.2 °C 34395 hPa Calm     89 % 0 mm 0.0 W/m2 CLR
23:15 -8.2 °C -9.1 °C 34405.1 hPa Calm     90 % 0 mm 0.0 W/m2 CLR
23:20 -8.2 °C -9.1 °C 34405.1 hPa Calm     90 % 0 mm 0.0 W/m2 CLR
23:25 -8.2 °C -9.1 °C 34405.1 hPa Calm     90 % 0 mm 0.0 W/m2 CLR
23:30 -8.2 °C -9.1 °C 34395 hPa Calm     90 % 0 mm 0.0 W/m2 CLR
23:35 -8.2 °C -9.1 °C 34395 hPa Calm     91 % 0 mm 0.0 W/m2 CLR
23:40 -8.2 °C -9.1 °C 34395 hPa Calm     91 % 0 mm 0.0 W/m2 CLR
23:45 -8.2 °C -9.1 °C 34395 hPa Calm     91 % 0 mm 0.0 W/m2 CLR
23:50 -8.2 °C -9.1 °C 34395 hPa Calm     91 % 0 mm 0.0 W/m2 CLR
23:55 -8.2 °C -9.1 °C 34395 hPa Calm     91 % 0 mm 0.0 W/m2 CLR
Lo Temps de Massalio
Compliments of Weather Underground - 1.25 mb